createdAt,value
2019-01-16T00:00:50.455Z,3.94
2019-01-16T00:02:50.508Z,3.94
2019-01-16T00:04:49.925Z,3.93
2019-01-16T00:06:50.531Z,3.92
2019-01-16T00:08:50.643Z,3.92
2019-01-16T00:10:50.615Z,3.92
2019-01-16T00:12:50.238Z,3.92
2019-01-16T00:14:50.332Z,3.94
2019-01-16T00:16:50.150Z,3.95
2019-01-16T00:18:50.239Z,3.96
2019-01-16T00:20:50.304Z,3.97
2019-01-16T00:22:50.386Z,3.96
2019-01-16T00:24:50.041Z,3.97
2019-01-16T00:26:50.386Z,3.98
2019-01-16T00:28:50.614Z,3.98
2019-01-16T00:30:50.651Z,3.98
2019-01-16T00:32:50.649Z,3.98
2019-01-16T00:34:50.130Z,3.97
2019-01-16T00:36:50.294Z,3.97
2019-01-16T00:38:50.392Z,3.97
2019-01-16T00:40:49.946Z,3.97
2019-01-16T00:42:49.915Z,3.97
2019-01-16T00:44:49.960Z,3.96
2019-01-16T00:46:50.125Z,3.97
2019-01-16T00:48:50.151Z,3.98
2019-01-16T00:50:50.582Z,3.98
2019-01-16T00:52:49.790Z,3.97
2019-01-16T00:54:49.994Z,3.96
2019-01-16T00:56:50.280Z,3.96
2019-01-16T00:58:50.291Z,3.92
2019-01-16T01:00:50.278Z,3.91
2019-01-16T01:02:50.353Z,3.90
2019-01-16T01:04:49.748Z,3.90
2019-01-16T01:06:50.002Z,3.89
2019-01-16T01:08:50.048Z,3.89
2019-01-16T01:10:50.003Z,3.89
2019-01-16T01:12:49.989Z,3.90
2019-01-16T01:14:49.981Z,3.90
2019-01-16T01:16:50.167Z,3.89
2019-01-16T01:18:50.152Z,3.90
2019-01-16T01:20:50.158Z,3.88
2019-01-16T01:22:50.027Z,3.88
2019-01-16T01:24:50.052Z,3.88
2019-01-16T01:26:49.754Z,3.87
2019-01-16T01:28:49.904Z,3.84
2019-01-16T01:30:49.858Z,3.84
2019-01-16T01:32:50.399Z,3.83
2019-01-16T01:34:49.708Z,3.83
2019-01-16T01:36:50.007Z,3.83
2019-01-16T01:38:49.954Z,3.83
2019-01-16T01:40:49.983Z,3.83
2019-01-16T01:42:49.999Z,3.84
2019-01-16T01:44:50.659Z,3.84
2019-01-16T01:46:50.456Z,3.83
2019-01-16T01:48:50.494Z,3.81
2019-01-16T01:50:50.470Z,3.79
2019-01-16T01:52:49.725Z,3.79
2019-01-16T01:54:49.709Z,3.79
2019-01-16T01:56:50.003Z,3.77
2019-01-16T01:58:50.031Z,3.76
2019-01-16T02:00:50.006Z,3.74
2019-01-16T02:02:50.057Z,3.74
2019-01-16T02:04:50.463Z,3.75
2019-01-16T02:06:49.721Z,3.75
2019-01-16T02:08:49.807Z,3.72
2019-01-16T02:10:49.813Z,3.69
2019-01-16T02:12:50.051Z,3.68
2019-01-16T02:14:50.088Z,3.68
2019-01-16T02:16:50.367Z,3.70
2019-01-16T02:18:50.450Z,3.72
2019-01-16T02:20:50.085Z,3.71
2019-01-16T02:22:50.264Z,3.71
2019-01-16T02:24:50.004Z,3.74
2019-01-16T02:26:50.214Z,3.74
2019-01-16T02:28:50.501Z,3.76
2019-01-16T02:30:50.699Z,3.77
2019-01-16T02:32:49.832Z,3.77
2019-01-16T02:34:50.252Z,3.76
2019-01-16T02:36:50.517Z,3.75
2019-01-16T02:38:50.519Z,3.77
2019-01-16T02:40:50.588Z,3.78
2019-01-16T02:42:50.626Z,3.79
2019-01-16T02:44:50.201Z,3.78
2019-01-16T02:46:50.524Z,3.79
2019-01-16T02:48:56.676Z,3.79
2019-01-16T02:50:49.721Z,3.79
2019-01-16T02:52:49.771Z,3.79
2019-01-16T02:54:50.046Z,3.78
2019-01-16T02:56:50.127Z,3.79
2019-01-16T02:58:50.314Z,3.79
2019-01-16T03:00:50.624Z,3.79
2019-01-16T03:02:50.678Z,3.77
2019-01-16T03:04:50.505Z,3.77
2019-01-16T03:06:49.793Z,3.76
2019-01-16T03:08:50.153Z,3.76
2019-01-16T03:10:50.361Z,3.76
2019-01-16T03:12:50.274Z,3.75
2019-01-16T03:14:49.836Z,3.73
2019-01-16T03:16:49.996Z,3.76
2019-01-16T03:18:50.021Z,3.76
2019-01-16T03:20:50.063Z,3.78
2019-01-16T03:22:50.074Z,3.79
2019-01-16T03:24:50.167Z,3.79
2019-01-16T03:26:50.127Z,3.80
2019-01-16T03:28:49.888Z,3.79
2019-01-16T03:30:50.121Z,3.78
2019-01-16T03:32:50.191Z,3.78
2019-01-16T03:34:50.139Z,3.78
2019-01-16T03:36:50.349Z,3.80
2019-01-16T03:38:50.385Z,3.80
2019-01-16T03:40:50.464Z,3.80
2019-01-16T03:42:50.511Z,3.79
2019-01-16T03:44:50.240Z,3.78
2019-01-16T03:46:50.468Z,3.79
2019-01-16T03:48:50.511Z,3.77
2019-01-16T03:50:50.352Z,3.76
2019-01-16T03:52:50.149Z,3.76
2019-01-16T03:54:50.168Z,3.75
2019-01-16T03:56:50.243Z,3.74
2019-01-16T03:58:49.762Z,3.75
2019-01-16T04:00:49.730Z,3.76
2019-01-16T04:02:50.431Z,3.76
2019-01-16T04:04:50.196Z,3.74
2019-01-16T04:06:50.378Z,3.74
2019-01-16T04:08:50.483Z,3.73
2019-01-16T04:10:50.464Z,3.72
2019-01-16T04:12:50.465Z,3.72
2019-01-16T04:14:50.588Z,3.72
2019-01-16T04:16:49.862Z,3.72
2019-01-16T04:18:49.986Z,3.72
2019-01-16T04:20:50.046Z,3.71
2019-01-16T04:22:50.041Z,3.71
2019-01-16T04:24:50.713Z,3.70
2019-01-16T04:26:50.331Z,3.70
2019-01-16T04:28:50.336Z,3.71
2019-01-16T04:30:50.381Z,3.71
2019-01-16T04:32:50.502Z,3.71
2019-01-16T04:34:49.898Z,3.71
2019-01-16T04:36:50.120Z,3.71
2019-01-16T04:38:50.194Z,3.70
2019-01-16T04:40:50.148Z,3.70
2019-01-16T04:42:49.998Z,3.70
2019-01-16T04:44:50.527Z,3.70
2019-01-16T04:46:50.679Z,3.71
2019-01-16T04:48:49.687Z,3.72
2019-01-16T04:50:50.307Z,3.73
2019-01-16T04:52:50.273Z,3.71
2019-01-16T04:54:50.207Z,3.71
2019-01-16T04:56:50.350Z,3.72
2019-01-16T04:58:50.373Z,3.73
2019-01-16T05:00:49.725Z,3.73
2019-01-16T05:02:49.739Z,3.72
2019-01-16T05:04:50.649Z,3.70
2019-01-16T05:06:50.374Z,3.68
2019-01-16T05:08:49.924Z,3.67
2019-01-16T05:10:50.516Z,3.65
2019-01-16T05:12:50.602Z,3.65
2019-01-16T05:14:49.461Z,3.64
2019-01-16T05:16:50.676Z,3.63
2019-01-16T05:18:49.715Z,3.62
2019-01-16T05:20:49.826Z,3.63
2019-01-16T05:22:49.874Z,3.63
2019-01-16T05:24:49.761Z,3.64
2019-01-16T05:26:50.677Z,3.64
2019-01-16T05:28:49.741Z,3.63
2019-01-16T05:30:50.556Z,3.62
2019-01-16T05:32:49.865Z,3.61
2019-01-16T05:34:50.238Z,3.60
2019-01-16T05:36:50.519Z,3.60
2019-01-16T05:38:50.571Z,3.60
2019-01-16T05:40:50.377Z,3.61
2019-01-16T05:42:50.044Z,3.60
2019-01-16T05:44:50.111Z,3.58
2019-01-16T05:46:50.164Z,3.56
2019-01-16T05:48:50.167Z,3.55
2019-01-16T05:50:49.717Z,3.55
2019-01-16T05:52:49.686Z,3.57
2019-01-16T05:54:50.630Z,3.58
2019-01-16T05:56:49.759Z,3.58
2019-01-16T05:58:49.753Z,3.59
2019-01-16T06:00:50.196Z,3.57
2019-01-16T06:02:50.113Z,3.55
2019-01-16T06:04:50.463Z,3.55
2019-01-16T06:06:49.735Z,3.55
2019-01-16T06:08:49.692Z,3.54
2019-01-16T06:10:50.584Z,3.53
2019-01-16T06:12:50.416Z,3.52
2019-01-16T06:14:50.182Z,3.51
2019-01-16T06:16:50.286Z,3.50
2019-01-16T06:18:50.333Z,3.49
2019-01-16T06:20:50.117Z,3.48
2019-01-16T06:22:50.122Z,3.48
2019-01-16T06:24:50.124Z,3.48
2019-01-16T06:26:50.316Z,3.48
2019-01-16T06:28:50.388Z,3.47
2019-01-16T06:30:50.403Z,3.48
2019-01-16T06:32:50.429Z,3.49
2019-01-16T06:34:50.677Z,3.50
2019-01-16T06:36:49.722Z,3.50
2019-01-16T06:38:49.859Z,3.51
2019-01-16T06:40:50.559Z,3.51
2019-01-16T06:42:50.684Z,3.51
2019-01-16T06:44:49.702Z,3.51
2019-01-16T06:46:50.086Z,3.49
2019-01-16T06:48:50.086Z,3.49
2019-01-16T06:50:50.328Z,3.49
2019-01-16T06:52:50.160Z,3.47
2019-01-16T06:54:50.236Z,3.47
2019-01-16T06:56:50.363Z,3.48
2019-01-16T06:58:50.404Z,3.48
2019-01-16T07:00:50.536Z,3.47
2019-01-16T07:02:50.673Z,3.46
2019-01-16T07:04:50.051Z,3.45
2019-01-16T07:06:50.192Z,3.45
2019-01-16T07:08:50.130Z,3.46
2019-01-16T07:10:49.724Z,3.48
2019-01-16T07:12:49.942Z,3.48
2019-01-16T07:14:50.576Z,3.49
2019-01-16T07:16:49.924Z,3.49
2019-01-16T07:18:50.161Z,3.49
2019-01-16T07:20:50.191Z,3.49
2019-01-16T07:22:50.050Z,3.49
2019-01-16T07:24:50.058Z,3.47
2019-01-16T07:26:50.329Z,3.46
2019-01-16T07:28:50.331Z,3.44
2019-01-16T07:30:50.303Z,3.43
2019-01-16T07:32:50.367Z,3.43
2019-01-16T07:34:49.789Z,3.44
2019-01-16T07:36:50.033Z,3.44
2019-01-16T07:38:50.078Z,3.45
2019-01-16T07:40:50.141Z,3.46
2019-01-16T07:42:50.429Z,3.50
2019-01-16T07:44:50.643Z,3.53
2019-01-16T07:46:50.358Z,3.55
2019-01-16T07:48:50.066Z,3.57
2019-01-16T07:50:50.129Z,3.60
2019-01-16T07:52:50.314Z,3.62
2019-01-16T07:54:50.342Z,3.63
2019-01-16T07:56:50.228Z,3.65
2019-01-16T07:58:50.266Z,3.66
2019-01-16T08:00:50.314Z,3.67
2019-01-16T08:02:50.385Z,3.67
2019-01-16T08:04:50.570Z,3.68
2019-01-16T08:06:50.554Z,3.67
2019-01-16T08:08:50.564Z,3.69
2019-01-16T08:10:49.932Z,3.71
2019-01-16T08:12:50.675Z,3.72
2019-01-16T08:14:50.362Z,3.73
2019-01-16T08:16:50.148Z,3.72
2019-01-16T08:18:50.176Z,3.73
2019-01-16T08:20:50.245Z,3.76
2019-01-16T08:22:50.234Z,3.82
2019-01-16T08:24:50.046Z,3.86
2019-01-16T08:26:50.205Z,3.89
2019-01-16T08:28:50.256Z,3.90
2019-01-16T08:30:50.271Z,3.91
2019-01-16T08:32:49.765Z,3.92
2019-01-16T08:34:50.137Z,3.89
2019-01-16T08:36:49.881Z,3.88
2019-01-16T08:38:50.637Z,3.90
2019-01-16T08:40:50.278Z,3.89
2019-01-16T08:42:50.255Z,3.90
2019-01-16T08:44:49.927Z,3.87
2019-01-16T08:46:49.941Z,3.84
2019-01-16T08:48:49.913Z,3.83
2019-01-16T08:50:49.895Z,3.84
2019-01-16T08:52:49.817Z,3.85
2019-01-16T08:54:50.020Z,3.85
2019-01-16T08:56:50.167Z,3.86
2019-01-16T08:58:50.559Z,3.86
2019-01-16T09:00:50.651Z,3.92
2019-01-16T09:02:50.670Z,4.00
2019-01-16T09:04:50.196Z,4.05
2019-01-16T09:06:50.289Z,4.10
2019-01-16T09:08:50.334Z,4.14
2019-01-16T09:10:50.111Z,4.20
2019-01-16T09:12:49.955Z,4.20
2019-01-16T09:14:49.993Z,4.22
2019-01-16T09:16:49.886Z,4.21
2019-01-16T09:18:49.904Z,4.21
2019-01-16T09:20:49.907Z,4.18
2019-01-16T09:22:49.881Z,4.22
2019-01-16T09:24:50.330Z,4.18
2019-01-16T09:26:50.446Z,4.17
2019-01-16T09:28:50.499Z,4.26
2019-01-16T09:30:50.416Z,4.29
2019-01-16T09:32:50.402Z,4.30
2019-01-16T09:34:50.564Z,4.42
2019-01-16T09:36:49.812Z,4.49
2019-01-16T09:38:50.539Z,4.51
2019-01-16T09:40:50.516Z,4.57
2019-01-16T09:42:50.606Z,4.57
2019-01-16T09:44:50.318Z,4.63
2019-01-16T09:46:50.547Z,4.68
2019-01-16T09:48:50.473Z,4.78
2019-01-16T09:50:50.487Z,4.86
2019-01-16T09:52:50.432Z,4.99
2019-01-16T09:54:50.101Z,5.10
2019-01-16T09:56:50.114Z,5.11
2019-01-16T09:58:50.115Z,5.05
2019-01-16T10:00:50.186Z,5.02
2019-01-16T10:02:50.164Z,4.93
2019-01-16T10:04:50.401Z,4.89
2019-01-16T10:06:50.652Z,4.76
2019-01-16T10:08:49.760Z,4.73
2019-01-16T10:10:49.836Z,4.75
2019-01-16T10:12:49.832Z,4.74
2019-01-16T10:14:49.873Z,4.75
2019-01-16T10:16:50.645Z,4.79
2019-01-16T10:18:49.736Z,4.85
2019-01-16T10:20:56.270Z,4.93
2019-01-16T10:22:50.296Z,4.94
2019-01-16T10:24:50.243Z,4.99
2019-01-16T10:26:50.624Z,5.06
2019-01-16T10:28:50.363Z,5.12
2019-01-16T10:30:50.647Z,5.31
2019-01-16T10:32:49.821Z,5.33
2019-01-16T10:34:49.740Z,5.36
2019-01-16T10:36:50.827Z,5.62
2019-01-16T10:38:50.375Z,5.76
2019-01-16T10:40:50.040Z,6.06
2019-01-16T10:42:50.790Z,6.09
2019-01-16T10:44:50.212Z,6.15
2019-01-16T10:46:50.838Z,6.13
2019-01-16T10:48:50.511Z,6.02
2019-01-16T10:50:50.590Z,5.84
2019-01-16T10:52:50.452Z,5.78
2019-01-16T10:54:50.066Z,6.11
2019-01-16T10:56:50.700Z,6.33
2019-01-16T10:58:50.253Z,6.23
2019-01-16T11:00:50.139Z,6.06
2019-01-16T11:02:50.208Z,5.91
2019-01-16T11:04:49.875Z,5.79
2019-01-16T11:06:50.562Z,5.57
2019-01-16T11:08:49.905Z,5.40
2019-01-16T11:10:50.101Z,5.40
2019-01-16T11:12:49.788Z,5.28
2019-01-16T11:14:50.053Z,5.30
2019-01-16T11:16:57.180Z,5.32
2019-01-16T11:18:50.321Z,5.29
2019-01-16T11:20:50.393Z,5.21
2019-01-16T11:22:49.860Z,5.16
2019-01-16T11:24:50.182Z,5.25
2019-01-16T11:26:49.839Z,5.28
2019-01-16T11:28:49.966Z,5.28
2019-01-16T11:30:50.577Z,5.24
2019-01-16T11:32:49.925Z,5.21
2019-01-16T11:34:50.586Z,5.24
2019-01-16T11:36:50.637Z,5.34
2019-01-16T11:38:50.038Z,5.46
2019-01-16T11:40:51.169Z,5.55
2019-01-16T11:42:50.409Z,5.57
2019-01-16T11:44:50.642Z,5.58
2019-01-16T11:46:50.333Z,5.74
2019-01-16T11:48:49.943Z,6.09
2019-01-16T11:50:50.033Z,6.31
2019-01-16T11:52:50.458Z,6.59
2019-01-16T11:54:50.661Z,6.72
2019-01-16T11:56:50.092Z,7.0
2019-01-16T11:58:50.055Z,7.0
2019-01-16T12:00:50.441Z,7.1
2019-01-16T12:02:49.996Z,7.1
2019-01-16T12:04:50.110Z,7.1
2019-01-16T12:06:50.737Z,7.1
2019-01-16T12:08:50.114Z,7.1
2019-01-16T12:10:50.374Z,6.89
2019-01-16T12:12:50.836Z,6.80
2019-01-16T12:14:50.356Z,6.79
2019-01-16T12:16:50.650Z,6.56
2019-01-16T12:18:50.092Z,6.60
2019-01-16T12:20:50.200Z,6.76
2019-01-16T12:22:50.056Z,6.93
2019-01-16T12:24:50.227Z,6.92
2019-01-16T12:26:50.768Z,6.78
2019-01-16T12:28:50.675Z,6.77
2019-01-16T12:30:50.342Z,6.74
2019-01-16T12:32:50.764Z,6.62
2019-01-16T12:34:50.708Z,6.70
2019-01-16T12:36:50.166Z,6.95
2019-01-16T12:38:50.483Z,6.9
2019-01-16T12:40:50.397Z,6.9
2019-01-16T12:42:49.892Z,6.9
2019-01-16T12:44:50.235Z,6.84
2019-01-16T12:46:50.475Z,6.72
2019-01-16T12:48:49.979Z,6.46
2019-01-16T12:50:49.874Z,6.39
2019-01-16T12:52:54.811Z,6.38
2019-01-16T12:54:50.219Z,6.51
2019-01-16T12:56:50.146Z,6.60
2019-01-16T12:58:50.431Z,6.51
2019-01-16T13:00:49.937Z,6.37
2019-01-16T13:02:50.444Z,6.30
2019-01-16T13:04:49.876Z,6.38
2019-01-16T13:06:50.288Z,6.43
2019-01-16T13:08:50.436Z,6.43
2019-01-16T13:10:50.195Z,6.54
2019-01-16T13:12:50.493Z,6.54
2019-01-16T13:14:49.968Z,6.33
2019-01-16T13:16:50.283Z,6.43
2019-01-16T13:18:50.445Z,6.36
2019-01-16T13:20:50.715Z,6.51
2019-01-16T13:22:50.655Z,6.58
2019-01-16T13:24:50.846Z,6.82
2019-01-16T13:26:50.317Z,6.96
2019-01-16T13:28:50.478Z,7.18
2019-01-16T13:30:50.460Z,7.2
2019-01-16T13:32:50.565Z,7.3
2019-01-16T13:34:50.023Z,7.3
2019-01-16T13:36:50.672Z,7.45
2019-01-16T13:38:50.760Z,7.5
2019-01-16T13:40:49.906Z,7.38
2019-01-16T13:42:50.577Z,7.17
2019-01-16T13:44:50.494Z,7.42
2019-01-16T13:46:49.881Z,7.5
2019-01-16T13:48:53.374Z,7.5
2019-01-16T13:50:50.509Z,7.4
2019-01-16T13:52:50.492Z,7.6
2019-01-16T13:54:50.690Z,7.58
2019-01-16T13:56:49.993Z,7.49
2019-01-16T13:58:50.158Z,7.53
2019-01-16T14:00:50.862Z,7.53
2019-01-16T14:02:50.034Z,7.58
2019-01-16T14:04:50.783Z,7.48
2019-01-16T14:06:50.283Z,7.33
2019-01-16T14:08:50.212Z,6.90
2019-01-16T14:10:50.206Z,6.73
2019-01-16T14:12:50.190Z,6.61
2019-01-16T14:14:50.185Z,6.50
2019-01-16T14:16:50.347Z,6.39
2019-01-16T14:18:50.359Z,6.28
2019-01-16T14:20:50.373Z,6.13
2019-01-16T14:22:50.387Z,6.07
2019-01-16T14:24:50.066Z,5.89
2019-01-16T14:26:49.690Z,5.82
2019-01-16T14:28:49.707Z,5.69
2019-01-16T14:30:49.814Z,5.60
2019-01-16T14:32:49.801Z,5.58
2019-01-16T14:34:50.323Z,5.57
2019-01-16T14:36:50.537Z,5.56
2019-01-16T14:38:50.287Z,5.47
2019-01-16T14:40:50.313Z,5.47
2019-01-16T14:42:50.235Z,5.39
2019-01-16T14:44:50.310Z,5.34
2019-01-16T14:46:50.530Z,5.30
2019-01-16T14:48:50.534Z,5.26
2019-01-16T14:50:50.508Z,5.23
2019-01-16T14:52:50.539Z,5.20
2019-01-16T14:54:50.526Z,5.15
2019-01-16T14:56:49.683Z,5.09
2019-01-16T14:58:49.806Z,5.07
2019-01-16T15:00:49.834Z,5.00
2019-01-16T15:02:49.853Z,5.00
2019-01-16T15:04:50.409Z,4.99
2019-01-16T15:06:50.493Z,4.99
2019-01-16T15:08:50.563Z,4.97
2019-01-16T15:10:50.176Z,4.93
2019-01-16T15:12:50.198Z,4.91
2019-01-16T15:14:50.226Z,4.86
2019-01-16T15:16:50.377Z,4.83
2019-01-16T15:18:50.153Z,4.77
2019-01-16T15:20:50.225Z,4.74
2019-01-16T15:22:50.190Z,4.67
2019-01-16T15:24:50.554Z,4.63
2019-01-16T15:26:49.829Z,4.53
2019-01-16T15:28:49.796Z,4.47
2019-01-16T15:30:49.935Z,4.42
2019-01-16T15:32:50.043Z,4.35
2019-01-16T15:34:50.245Z,4.32
2019-01-16T15:36:50.408Z,4.25
2019-01-16T15:38:50.608Z,4.20
2019-01-16T15:40:50.610Z,4.18
2019-01-16T15:42:50.608Z,4.14
2019-01-16T15:44:50.562Z,4.12
2019-01-16T15:46:50.439Z,4.08
2019-01-16T15:48:50.367Z,4.05
2019-01-16T15:50:50.381Z,4.02
2019-01-16T15:52:50.146Z,3.96
2019-01-16T15:54:50.657Z,3.92
2019-01-16T15:56:50.415Z,3.88
2019-01-16T15:58:50.007Z,3.83
2019-01-16T16:00:50.308Z,3.76
2019-01-16T16:02:50.327Z,3.71
2019-01-16T16:04:49.730Z,3.67
2019-01-16T16:06:49.960Z,3.65
2019-01-16T16:08:49.954Z,3.59
2019-01-16T16:10:49.912Z,3.58
2019-01-16T16:12:49.847Z,3.51
2019-01-16T16:14:49.908Z,3.48
2019-01-16T16:16:50.045Z,3.44
2019-01-16T16:18:50.024Z,3.33
2019-01-16T16:20:50.000Z,3.27
2019-01-16T16:22:49.991Z,3.20
2019-01-16T16:24:49.965Z,3.17
2019-01-16T16:26:49.992Z,3.18
2019-01-16T16:28:49.955Z,3.22
2019-01-16T16:30:49.964Z,3.22
2019-01-16T16:32:51.949Z,3.23
2019-01-16T16:34:49.950Z,3.23
2019-01-16T16:36:50.102Z,3.26
2019-01-16T16:38:49.932Z,3.23
2019-01-16T16:40:49.870Z,3.24
2019-01-16T16:42:49.913Z,3.23
2019-01-16T16:44:49.921Z,3.23
2019-01-16T16:46:50.078Z,3.23
2019-01-16T16:48:50.040Z,3.21
2019-01-16T16:50:50.119Z,3.11
2019-01-16T16:52:50.360Z,3.11
2019-01-16T16:54:50.217Z,3.03
2019-01-16T16:56:50.340Z,3.01
2019-01-16T16:58:54.794Z,3.02
2019-01-16T17:00:49.993Z,3.01
2019-01-16T17:02:50.014Z,3.00
2019-01-16T17:04:50.640Z,2.98
2019-01-16T17:06:49.879Z,2.98
2019-01-16T17:08:50.622Z,2.90
2019-01-16T17:10:49.862Z,2.87
2019-01-16T17:12:49.796Z,2.88
2019-01-16T17:14:49.726Z,2.88
2019-01-16T17:16:50.453Z,2.89
2019-01-16T17:18:50.191Z,2.92
2019-01-16T17:20:50.248Z,2.93
2019-01-16T17:22:50.280Z,2.91
2019-01-16T17:24:50.252Z,2.88
2019-01-16T17:26:50.368Z,2.85
2019-01-16T17:28:50.452Z,2.83
2019-01-16T17:30:50.304Z,2.78
2019-01-16T17:32:50.371Z,2.78
2019-01-16T17:34:50.416Z,2.80
2019-01-16T17:36:49.731Z,2.80
2019-01-16T17:38:49.818Z,2.81
2019-01-16T17:40:49.814Z,2.80
2019-01-16T17:42:50.551Z,2.76
2019-01-16T17:44:50.502Z,2.76
2019-01-16T17:46:49.797Z,2.77
2019-01-16T17:48:49.816Z,2.77
2019-01-16T17:50:49.852Z,2.75
2019-01-16T17:52:49.979Z,2.72
2019-01-16T17:54:50.031Z,2.71
2019-01-16T17:56:50.186Z,2.70
2019-01-16T17:58:50.261Z,2.69
2019-01-16T18:00:50.257Z,2.73
2019-01-16T18:02:50.062Z,2.75
2019-01-16T18:04:50.310Z,2.76
2019-01-16T18:06:50.698Z,2.77
2019-01-16T18:08:50.426Z,2.78
2019-01-16T18:10:50.503Z,2.76
2019-01-16T18:12:50.518Z,2.75
2019-01-16T18:14:49.774Z,2.76
2019-01-16T18:16:50.109Z,2.75
2019-01-16T18:18:50.086Z,2.79
2019-01-16T18:20:50.052Z,2.80
2019-01-16T18:22:50.053Z,2.75
2019-01-16T18:24:50.048Z,2.71
2019-01-16T18:26:50.311Z,2.66
2019-01-16T18:28:50.333Z,2.68
2019-01-16T18:30:50.323Z,2.70
2019-01-16T18:32:50.336Z,2.69
2019-01-16T18:34:50.633Z,2.69
2019-01-16T18:36:49.786Z,2.69
2019-01-16T18:38:49.899Z,2.68
2019-01-16T18:40:49.709Z,2.68
2019-01-16T18:42:49.738Z,2.67
2019-01-16T18:44:49.745Z,2.63
2019-01-16T18:46:50.002Z,2.59
2019-01-16T18:48:50.087Z,2.58
2019-01-16T18:50:50.070Z,2.59
2019-01-16T18:52:52.235Z,2.59
2019-01-16T18:54:49.883Z,2.57
2019-01-16T18:56:50.146Z,2.54
2019-01-16T18:58:50.155Z,2.49
2019-01-16T19:00:50.150Z,2.46
2019-01-16T19:02:50.237Z,2.46
2019-01-16T19:04:50.453Z,2.39
2019-01-16T19:06:50.355Z,2.37
2019-01-16T19:08:50.341Z,2.28
2019-01-16T19:10:50.334Z,2.23
2019-01-16T19:12:50.151Z,2.19
2019-01-16T19:14:50.672Z,2.15
2019-01-16T19:16:49.894Z,2.12
2019-01-16T19:18:49.823Z,2.11
2019-01-16T19:20:49.890Z,2.10
2019-01-16T19:22:49.917Z,2.10
2019-01-16T19:24:49.945Z,2.07
2019-01-16T19:26:50.619Z,2.02
2019-01-16T19:28:50.334Z,2.01
2019-01-16T19:30:50.147Z,2.02
2019-01-16T19:32:49.691Z,2.00
2019-01-16T19:34:50.144Z,1.98
2019-01-16T19:36:50.527Z,1.98
2019-01-16T19:38:50.353Z,2.00
2019-01-16T19:40:50.319Z,2.02
2019-01-16T19:42:50.170Z,2.02
2019-01-16T19:44:50.168Z,1.97
2019-01-16T19:46:50.101Z,1.92
2019-01-16T19:48:50.117Z,1.84
2019-01-16T19:50:49.863Z,1.80
2019-01-16T19:52:50.017Z,1.73
2019-01-16T19:54:50.039Z,1.70
2019-01-16T19:56:50.261Z,1.65
2019-01-16T19:58:50.250Z,1.62
2019-01-16T20:00:50.275Z,1.63
2019-01-16T20:02:50.410Z,1.56
2019-01-16T20:04:49.720Z,1.50
2019-01-16T20:06:50.467Z,1.44
2019-01-16T20:08:50.455Z,1.38
2019-01-16T20:10:50.533Z,1.31
2019-01-16T20:12:50.141Z,1.24
2019-01-16T20:14:50.154Z,1.16
2019-01-16T20:16:50.341Z,1.11
2019-01-16T20:18:50.057Z,1.03
2019-01-16T20:20:50.054Z,0.96
2019-01-16T20:22:50.045Z,0.88
2019-01-16T20:24:50.006Z,0.83
2019-01-16T20:26:50.100Z,0.76
2019-01-16T20:28:50.135Z,0.71
2019-01-16T20:30:50.160Z,0.67
2019-01-16T20:32:50.184Z,0.64
2019-01-16T20:34:50.038Z,0.62
2019-01-16T20:36:49.996Z,0.57
2019-01-16T20:38:49.852Z,0.50
2019-01-16T20:40:49.863Z,0.40
2019-01-16T20:42:50.008Z,0.34
2019-01-16T20:44:49.865Z,0.30
2019-01-16T20:46:50.256Z,0.29
2019-01-16T20:48:50.589Z,0.25
2019-01-16T20:50:50.002Z,0.23
2019-01-16T20:52:49.990Z,0.23
2019-01-16T20:54:49.992Z,0.19
2019-01-16T20:56:49.753Z,0.15
2019-01-16T20:58:49.727Z,0.14
2019-01-16T21:00:49.826Z,0.13
2019-01-16T21:02:49.828Z,0.12
2019-01-16T21:04:50.288Z,0.04
2019-01-16T21:06:50.291Z,0.00
2019-01-16T21:08:50.314Z,0.01
2019-01-16T21:10:50.246Z,0.00
2019-01-16T21:12:49.874Z,0.02
2019-01-16T21:14:49.942Z,0.06
2019-01-16T21:16:50.669Z,0.01
2019-01-16T21:20:50.516Z,0.00
